Nearby METAR Reports

 

KMLI - Moline/Quad City, Illinois, USA
Distance from station: ENE 4mi, 7km
Updated: 08/18/2018 6:52pm
Clear
Clear
 Wind from ESE
Wind: ESE 6 mph , 9 km/h
Temperature: 81°F , 27°C
Heat Index: 83°F , 28°C
Dew Point: 66°F , 19°C
Humidity: 62%
Barometer: 29.96 inHg , 1014.6 hPa
Clouds: Clear
Visibility: 10 miles , 16 km
2018/08/18 23:52 KMLI 182352Z 11005KT 10SM CLR 27/19 A2996 RMK AO2 SLP142 T02720194 10300 20272 58009
KDVN - Davenport/Quad C, Iowa, USA
Distance from station: N 14mi, 22km
Updated: 08/18/2018 6:52pm
Clear
Clear
 Wind from ESE
Wind: ESE 5 mph , 7 km/h
Temperature: 79°F , 26°C
Dew Point: 64°F , 18°C
Humidity: 61%
Barometer: 29.99 inHg , 1015.6 hPa
Clouds: Clear
Visibility: 10 miles , 16 km
2018/08/18 23:52 KDVN 182352Z AUTO 11004KT 10SM CLR 26/18 A2999 RMK AO2 SLP146 T02610178 10289 20261 58009
 
KMUT - Muscatine, Iowa, USA
Distance from station: W 29mi, 47km
Updated: 08/18/2018 6:55pm
Mostly cloudy
Mostly cloudy
 Wind from SE
Wind: SE 3 mph , 6 km/h
Temperature: 84°F , 29°C
Heat Index: 85°F , 29°C
Dew Point: 64°F , 18°C
Humidity: 51%
Barometer: 29.96 inHg , 1014.6 hPa
Clouds: Mostly cloudy
Visibility: 10 miles , 16 km
Cloud details: Partly cloudy 4600 ft
Partly cloudy 5000 ft
Mostly cloudy 6500 ft
2018/08/18 23:55 KMUT 182355Z AUTO 14003KT 10SM SCT046 SCT050 BKN065 29/18 A2996 RMK AO2
KCWI - Clinton Muni, Iowa, USA
Distance from station: NNE 31mi, 50km
Updated: 08/18/2018 6:56pm
Clear
Clear
 Wind from S
Wind: S 3 mph , 6 km/h
Temperature: 81°F , 27°C
Heat Index: 84°F , 29°C
Dew Point: 68°F , 20°C
Humidity: 66%
Barometer: 29.98 inHg , 1015.2 hPa
Clouds: Clear
Visibility: 10 miles , 16 km
2018/08/18 23:56 KCWI 182356Z AUTO 18003KT 10SM CLR 27/20 A2998 RMK AO2 SLP166 T02720200 10289 20267 58010
 
KGBG - Galesburg, Illinois, USA
Distance from station: SSE 35mi, 56km
Updated: 08/18/2018 6:35pm
Partly cloudy
Partly cloudy
 Wind from NE
Wind: NE 3 mph , 6 km/h
Temperature: 81°F , 27°C
Heat Index: 84°F , 29°C
Dew Point: 68°F , 20°C
Humidity: 66%
Barometer: 29.98 inHg , 1015.2 hPa
Clouds: Partly cloudy
Visibility: 10 miles , 16 km
Cloud details: Partly cloudy 3700 ft
2018/08/18 23:35 KGBG 182335Z AUTO 04003KT 10SM SCT037 27/20 A2998 RMK AO2 T02730196
KSFY - Savanna/Tritown, Illinois, USA
Distance from station: NNE 50mi, 80km
Updated: 08/18/2018 6:35pm
Clear
Clear
 Wind from calm
Wind: Calm
Temperature: 82°F , 28°C
Heat Index: 84°F , 29°C
Dew Point: 66°F , 19°C
Humidity: 58%
Barometer: 29.98 inHg , 1015.2 hPa
Clouds: Clear
Visibility: 10 miles , 16 km
2018/08/18 23:35 KSFY 182335Z AUTO 00000KT 10SM CLR 28/19 A2998 RMK AO2